<?xml version="1.0" encoding="UTF-8" standalone="no" ?>
<gpx xmlns="http://www.topografix.com/GPX/1/1" xmlns:xsi="http://www.w3.org/2001/XMLSchema-instance" xsi:schemaLocation="http://www.topografix.com/GPX/1/1 http://www.topografix.com/GPX/1/1/gpx.xsd" version="1.1" creator="VisuGPX - https://www.visugpx.com">
  <metadata>
    <name>GRP Tullins Vinay</name>
  </metadata>
  <trk>
    <name><![CDATA[GRP Tullins Vinay]]></name>
    <trkseg>
      <trkpt lat="45.29375" lon="5.43783">
        <ele>687.3</ele>
      </trkpt>
      <trkpt lat="45.29422" lon="5.43747">
        <ele>690.5</ele>
      </trkpt>
      <trkpt lat="45.29502" lon="5.43644">
        <ele>699.1</ele>
      </trkpt>
      <trkpt lat="45.29504" lon="5.43639">
        <ele>695.9296875</ele>
        <time>2015-11-15T19:00:26Z</time>
      </trkpt>
      <trkpt lat="45.29643" lon="5.43432">
        <ele>698.81640625</ele>
        <time>2015-11-15T19:00:27Z</time>
      </trkpt>
      <trkpt lat="45.29788" lon="5.4346">
        <ele>697.421875</ele>
        <time>2015-11-15T19:00:28Z</time>
      </trkpt>
      <trkpt lat="45.29883" lon="5.43598">
        <ele>711.41796875</ele>
        <time>2015-11-15T19:00:30Z</time>
      </trkpt>
      <trkpt lat="45.29944" lon="5.43833">
        <ele>731.78125</ele>
        <time>2015-11-15T19:00:31Z</time>
      </trkpt>
      <trkpt lat="45.30018" lon="5.43554">
        <ele>740.35546875</ele>
        <time>2015-11-15T19:00:33Z</time>
      </trkpt>
      <trkpt lat="45.30054" lon="5.43836">
        <ele>746.8359375</ele>
        <time>2015-11-15T19:00:34Z</time>
      </trkpt>
      <trkpt lat="45.30143" lon="5.44023">
        <ele>751.56640625</ele>
        <time>2015-11-15T19:00:36Z</time>
      </trkpt>
      <trkpt lat="45.30228" lon="5.44496">
        <ele>732.05859375</ele>
        <time>2015-11-15T19:00:38Z</time>
      </trkpt>
      <trkpt lat="45.30226" lon="5.4451">
        <ele>738.2</ele>
      </trkpt>
      <trkpt lat="45.3016" lon="5.44503">
        <ele>718.6</ele>
      </trkpt>
      <trkpt lat="45.30131" lon="5.4449">
        <ele>708.1</ele>
      </trkpt>
      <trkpt lat="45.30112" lon="5.44454">
        <ele>704.2</ele>
      </trkpt>
      <trkpt lat="45.30052" lon="5.44399">
        <ele>685.3</ele>
      </trkpt>
      <trkpt lat="45.30037" lon="5.44397">
        <ele>684.7</ele>
      </trkpt>
      <trkpt lat="45.30044" lon="5.4448">
        <ele>671.4</ele>
      </trkpt>
      <trkpt lat="45.30034" lon="5.44547">
        <ele>657.3</ele>
      </trkpt>
      <trkpt lat="45.3003" lon="5.44548">
        <ele>646.1796875</ele>
        <time>2015-11-15T19:00:39Z</time>
      </trkpt>
      <trkpt lat="45.30002" lon="5.44803">
        <ele>593.265625</ele>
        <time>2015-11-15T19:00:40Z</time>
      </trkpt>
      <trkpt lat="45.2997" lon="5.45293">
        <ele>539.03125</ele>
        <time>2015-11-15T19:00:42Z</time>
      </trkpt>
      <trkpt lat="45.30047" lon="5.45458">
        <ele>539.16015625</ele>
        <time>2015-11-15T19:00:43Z</time>
      </trkpt>
      <trkpt lat="45.29997" lon="5.45635">
        <ele>538.05078125</ele>
        <time>2015-11-15T19:00:45Z</time>
      </trkpt>
      <trkpt lat="45.30112" lon="5.45745">
        <ele>548.2734375</ele>
        <time>2015-11-15T19:00:46Z</time>
      </trkpt>
      <trkpt lat="45.30282" lon="5.45966">
        <ele>568.28125</ele>
        <time>2015-11-15T19:00:48Z</time>
      </trkpt>
      <trkpt lat="45.30322" lon="5.46432">
        <ele>595.1171875</ele>
        <time>2015-11-15T19:00:54Z</time>
      </trkpt>
      <trkpt lat="45.30384" lon="5.4609">
        <ele>639.7752</ele>
        <time>2015-11-15T19:00:55Z</time>
      </trkpt>
      <trkpt lat="45.30413" lon="5.45912">
        <ele>608.7734375</ele>
        <time>2015-11-15T19:00:56Z</time>
      </trkpt>
      <trkpt lat="45.30468" lon="5.45724">
        <ele>655.64453125</ele>
        <time>2015-11-15T19:00:58Z</time>
      </trkpt>
      <trkpt lat="45.3054" lon="5.45643">
        <ele>681.828125</ele>
        <time>2015-11-15T19:00:59Z</time>
      </trkpt>
      <trkpt lat="45.30741" lon="5.45811">
        <ele>706.74609375</ele>
        <time>2015-11-15T19:01:00Z</time>
      </trkpt>
      <trkpt lat="45.30837" lon="5.46057">
        <ele>706.83984375</ele>
        <time>2015-11-15T19:01:02Z</time>
      </trkpt>
      <trkpt lat="45.30924" lon="5.46034">
        <ele>706.5546875</ele>
        <time>2015-11-15T19:01:03Z</time>
      </trkpt>
      <trkpt lat="45.31097" lon="5.46061">
        <ele>733.61328125</ele>
        <time>2015-11-15T19:01:04Z</time>
      </trkpt>
      <trkpt lat="45.31251" lon="5.46354">
        <ele>759.8664</ele>
        <time>2015-11-15T19:01:06Z</time>
      </trkpt>
      <trkpt lat="45.31276" lon="5.46397">
        <ele>760</ele>
      </trkpt>
      <trkpt lat="45.31393" lon="5.46387">
        <ele>755.6</ele>
      </trkpt>
      <trkpt lat="45.31419" lon="5.46322">
        <ele>753.2</ele>
      </trkpt>
      <trkpt lat="45.31526" lon="5.463">
        <ele>731.5</ele>
      </trkpt>
      <trkpt lat="45.31566" lon="5.46283">
        <ele>725.9</ele>
      </trkpt>
      <trkpt lat="45.31631" lon="5.46289">
        <ele>714.4</ele>
      </trkpt>
      <trkpt lat="45.31675" lon="5.46251">
        <ele>705</ele>
      </trkpt>
      <trkpt lat="45.31686" lon="5.4628">
        <ele>700.6</ele>
      </trkpt>
      <trkpt lat="45.31688" lon="5.46334">
        <ele>700</ele>
      </trkpt>
      <trkpt lat="45.31645" lon="5.46452">
        <ele>685</ele>
      </trkpt>
      <trkpt lat="45.31644" lon="5.46532">
        <ele>676.2</ele>
      </trkpt>
      <trkpt lat="45.31665" lon="5.46599">
        <ele>669.5</ele>
      </trkpt>
      <trkpt lat="45.31715" lon="5.46665">
        <ele>650</ele>
      </trkpt>
      <trkpt lat="45.31811" lon="5.46732">
        <ele>627.4</ele>
      </trkpt>
      <trkpt lat="45.31841" lon="5.46843">
        <ele>593.8</ele>
      </trkpt>
      <trkpt lat="45.31832" lon="5.46864">
        <ele>589.3</ele>
      </trkpt>
      <trkpt lat="45.31783" lon="5.46873">
        <ele>586.6</ele>
      </trkpt>
      <trkpt lat="45.31666" lon="5.46949">
        <ele>561.7</ele>
      </trkpt>
      <trkpt lat="45.31664" lon="5.46952">
        <ele>561.4765625</ele>
        <time>2015-11-15T19:01:17Z</time>
      </trkpt>
      <trkpt lat="45.31623" lon="5.47019">
        <ele>557.8</ele>
      </trkpt>
      <trkpt lat="45.31565" lon="5.47087">
        <ele>552.8</ele>
      </trkpt>
      <trkpt lat="45.3146" lon="5.47214">
        <ele>540.6</ele>
      </trkpt>
      <trkpt lat="45.31451" lon="5.47312">
        <ele>517.2</ele>
      </trkpt>
      <trkpt lat="45.31487" lon="5.47312">
        <ele>512.8</ele>
      </trkpt>
      <trkpt lat="45.31522" lon="5.47295">
        <ele>510.7</ele>
      </trkpt>
      <trkpt lat="45.31538" lon="5.47306">
        <ele>508.7</ele>
      </trkpt>
      <trkpt lat="45.3155" lon="5.47382">
        <ele>495.7</ele>
      </trkpt>
      <trkpt lat="45.31584" lon="5.47468">
        <ele>484.8</ele>
      </trkpt>
      <trkpt lat="45.31581" lon="5.47509">
        <ele>476.2</ele>
      </trkpt>
      <trkpt lat="45.31537" lon="5.47523">
        <ele>463.6</ele>
      </trkpt>
      <trkpt lat="45.31468" lon="5.47612">
        <ele>442.1</ele>
      </trkpt>
      <trkpt lat="45.31456" lon="5.476">
        <ele>440.9</ele>
      </trkpt>
      <trkpt lat="45.31433" lon="5.47612">
        <ele>438.8</ele>
      </trkpt>
      <trkpt lat="45.31411" lon="5.47635">
        <ele>434.5</ele>
      </trkpt>
      <trkpt lat="45.3138" lon="5.4764">
        <ele>438</ele>
      </trkpt>
      <trkpt lat="45.3135" lon="5.47738">
        <ele>430</ele>
      </trkpt>
      <trkpt lat="45.31349" lon="5.47745">
        <ele>437.84765625</ele>
        <time>2015-11-15T19:01:27Z</time>
      </trkpt>
      <trkpt lat="45.31261" lon="5.4799">
        <ele>424.4453125</ele>
        <time>2015-11-15T19:01:30Z</time>
      </trkpt>
      <trkpt lat="45.31168" lon="5.48114">
        <ele>415.453125</ele>
        <time>2015-11-15T19:01:34Z</time>
      </trkpt>
      <trkpt lat="45.30864" lon="5.4814">
        <ele>371.9375</ele>
        <time>2015-11-15T19:01:35Z</time>
      </trkpt>
      <trkpt lat="45.30765" lon="5.48059">
        <ele>360.109375</ele>
        <time>2015-11-15T19:01:38Z</time>
      </trkpt>
      <trkpt lat="45.30738" lon="5.48062">
        <ele>361.9</ele>
      </trkpt>
      <trkpt lat="45.30716" lon="5.48086">
        <ele>357.9</ele>
      </trkpt>
      <trkpt lat="45.30711" lon="5.4812">
        <ele>353.4</ele>
      </trkpt>
      <trkpt lat="45.30723" lon="5.4816">
        <ele>353.3</ele>
      </trkpt>
      <trkpt lat="45.30717" lon="5.48175">
        <ele>348.7</ele>
      </trkpt>
      <trkpt lat="45.30669" lon="5.48087">
        <ele>337.7</ele>
      </trkpt>
      <trkpt lat="45.30664" lon="5.48064">
        <ele>335.7</ele>
      </trkpt>
      <trkpt lat="45.30664" lon="5.48039">
        <ele>335.6</ele>
      </trkpt>
      <trkpt lat="45.30651" lon="5.48021">
        <ele>333.4</ele>
      </trkpt>
      <trkpt lat="45.3065" lon="5.48082">
        <ele>332.4</ele>
      </trkpt>
      <trkpt lat="45.30645" lon="5.48096">
        <ele>329.3</ele>
      </trkpt>
      <trkpt lat="45.30616" lon="5.48119">
        <ele>325.3</ele>
      </trkpt>
      <trkpt lat="45.30611" lon="5.48134">
        <ele>325.8</ele>
      </trkpt>
      <trkpt lat="45.30612" lon="5.48139">
        <ele>332.953125</ele>
        <time>2015-11-15T19:01:39Z</time>
      </trkpt>
      <trkpt lat="45.30663" lon="5.48332">
        <ele>319.7352</ele>
        <time>2015-11-15T19:01:40Z</time>
      </trkpt>
      <trkpt lat="45.3057" lon="5.48507">
        <ele>300.94140625</ele>
        <time>2015-11-15T19:01:42Z</time>
      </trkpt>
      <trkpt lat="45.30562" lon="5.48503">
        <ele>316.7</ele>
      </trkpt>
      <trkpt lat="45.30563" lon="5.48444">
        <ele>314</ele>
      </trkpt>
      <trkpt lat="45.30552" lon="5.48415">
        <ele>312.7</ele>
      </trkpt>
      <trkpt lat="45.30504" lon="5.48415">
        <ele>307.6</ele>
      </trkpt>
      <trkpt lat="45.30448" lon="5.48451">
        <ele>300</ele>
      </trkpt>
      <trkpt lat="45.30425" lon="5.48433">
        <ele>295.3</ele>
      </trkpt>
      <trkpt lat="45.30405" lon="5.48347">
        <ele>292.8</ele>
      </trkpt>
      <trkpt lat="45.30387" lon="5.48302">
        <ele>286.3</ele>
      </trkpt>
      <trkpt lat="45.30391" lon="5.48242">
        <ele>288.1</ele>
      </trkpt>
      <trkpt lat="45.30384" lon="5.48236">
        <ele>285.4</ele>
      </trkpt>
      <trkpt lat="45.30377" lon="5.48243">
        <ele>283.2</ele>
      </trkpt>
      <trkpt lat="45.30374" lon="5.48291">
        <ele>279.2</ele>
      </trkpt>
      <trkpt lat="45.30377" lon="5.48416">
        <ele>268.6</ele>
      </trkpt>
      <trkpt lat="45.30378" lon="5.48525">
        <ele>259.5</ele>
      </trkpt>
      <trkpt lat="45.30396" lon="5.48568">
        <ele>256.6</ele>
      </trkpt>
      <trkpt lat="45.30391" lon="5.48588">
        <ele>253.4</ele>
      </trkpt>
      <trkpt lat="45.30366" lon="5.48583">
        <ele>250.7</ele>
      </trkpt>
      <trkpt lat="45.30348" lon="5.4856">
        <ele>249</ele>
      </trkpt>
      <trkpt lat="45.30338" lon="5.48541">
        <ele>247.2</ele>
      </trkpt>
      <trkpt lat="45.30321" lon="5.4856">
        <ele>245.3</ele>
      </trkpt>
      <trkpt lat="45.30326" lon="5.48588">
        <ele>244.4</ele>
      </trkpt>
      <trkpt lat="45.30318" lon="5.48617">
        <ele>242.4</ele>
      </trkpt>
      <trkpt lat="45.30311" lon="5.48631">
        <ele>240.5</ele>
      </trkpt>
      <trkpt lat="45.30295" lon="5.48635">
        <ele>238.1</ele>
      </trkpt>
      <trkpt lat="45.30277" lon="5.48623">
        <ele>238.2</ele>
      </trkpt>
      <trkpt lat="45.30248" lon="5.48635">
        <ele>232.3</ele>
      </trkpt>
      <trkpt lat="45.30239" lon="5.48665">
        <ele>229.3</ele>
      </trkpt>
      <trkpt lat="45.30241" lon="5.48716">
        <ele>226.1</ele>
      </trkpt>
      <trkpt lat="45.30183" lon="5.48636">
        <ele>226.9</ele>
      </trkpt>
      <trkpt lat="45.30137" lon="5.48518">
        <ele>234.7</ele>
      </trkpt>
      <trkpt lat="45.30073" lon="5.48445">
        <ele>236.8</ele>
      </trkpt>
      <trkpt lat="45.30008" lon="5.48336">
        <ele>243.1</ele>
      </trkpt>
      <trkpt lat="45.29962" lon="5.48297">
        <ele>240.84765625</ele>
        <time>2015-11-15T18:54:33Z</time>
      </trkpt>
      <trkpt lat="45.29896" lon="5.48396">
        <ele>229.7</ele>
      </trkpt>
      <trkpt lat="45.29835" lon="5.48363">
        <ele>230</ele>
      </trkpt>
      <trkpt lat="45.298" lon="5.48328">
        <ele>231.1</ele>
      </trkpt>
      <trkpt lat="45.29754" lon="5.48322">
        <ele>230.8</ele>
      </trkpt>
      <trkpt lat="45.29762" lon="5.48338">
        <ele>225.43359375</ele>
        <time>2015-11-15T18:54:37Z</time>
      </trkpt>
      <trkpt lat="45.29632" lon="5.48224">
        <ele>227.16015625</ele>
        <time>2015-11-15T18:54:41Z</time>
      </trkpt>
      <trkpt lat="45.29489" lon="5.48136">
        <ele>231.1796875</ele>
        <time>2015-11-15T18:54:42Z</time>
      </trkpt>
      <trkpt lat="45.29322" lon="5.48038">
        <ele>240.0390625</ele>
        <time>2015-11-15T18:54:45Z</time>
      </trkpt>
      <trkpt lat="45.29262" lon="5.47919">
        <ele>260.80078125</ele>
        <time>2015-11-15T18:54:48Z</time>
      </trkpt>
      <trkpt lat="45.29119" lon="5.47881">
        <ele>286.5390625</ele>
        <time>2015-11-15T18:54:51Z</time>
      </trkpt>
      <trkpt lat="45.29001" lon="5.47916">
        <ele>302.88671875</ele>
        <time>2015-11-15T18:54:53Z</time>
      </trkpt>
      <trkpt lat="45.28866" lon="5.47885">
        <ele>314.48046875</ele>
        <time>2015-11-15T18:54:54Z</time>
      </trkpt>
      <trkpt lat="45.28804" lon="5.47836">
        <ele>319.2</ele>
      </trkpt>
      <trkpt lat="45.28735" lon="5.47796">
        <ele>325.4</ele>
      </trkpt>
      <trkpt lat="45.2871" lon="5.47798">
        <ele>330.5</ele>
      </trkpt>
      <trkpt lat="45.28716" lon="5.47755">
        <ele>328.6</ele>
      </trkpt>
      <trkpt lat="45.28723" lon="5.47729">
        <ele>327.6</ele>
      </trkpt>
      <trkpt lat="45.28708" lon="5.47736">
        <ele>330.9</ele>
      </trkpt>
      <trkpt lat="45.28694" lon="5.47725">
        <ele>334.2</ele>
      </trkpt>
      <trkpt lat="45.28681" lon="5.47743">
        <ele>338.3</ele>
      </trkpt>
      <trkpt lat="45.28662" lon="5.47775">
        <ele>342.8</ele>
      </trkpt>
      <trkpt lat="45.28599" lon="5.4783">
        <ele>356</ele>
      </trkpt>
      <trkpt lat="45.28566" lon="5.47833">
        <ele>364.1</ele>
      </trkpt>
      <trkpt lat="45.28561" lon="5.47817">
        <ele>367.8</ele>
      </trkpt>
      <trkpt lat="45.28576" lon="5.47734">
        <ele>375.1</ele>
      </trkpt>
      <trkpt lat="45.28573" lon="5.4771">
        <ele>379.2</ele>
      </trkpt>
      <trkpt lat="45.28528" lon="5.47716">
        <ele>391</ele>
      </trkpt>
      <trkpt lat="45.28469" lon="5.47699">
        <ele>400.9</ele>
      </trkpt>
      <trkpt lat="45.28433" lon="5.47619">
        <ele>406.8</ele>
      </trkpt>
      <trkpt lat="45.28311" lon="5.47534">
        <ele>423.2</ele>
      </trkpt>
      <trkpt lat="45.28309" lon="5.47535">
        <ele>415.55859375</ele>
        <time>2015-11-15T18:55:04Z</time>
      </trkpt>
      <trkpt lat="45.28153" lon="5.47427">
        <ele>411.11328125</ele>
        <time>2015-11-15T18:55:06Z</time>
      </trkpt>
      <trkpt lat="45.28052" lon="5.47367">
        <ele>427.4</ele>
      </trkpt>
      <trkpt lat="45.28008" lon="5.47349">
        <ele>429</ele>
      </trkpt>
      <trkpt lat="45.27948" lon="5.47344">
        <ele>428.1</ele>
      </trkpt>
      <trkpt lat="45.27938" lon="5.47325">
        <ele>427</ele>
      </trkpt>
      <trkpt lat="45.27953" lon="5.47271">
        <ele>421.2</ele>
      </trkpt>
      <trkpt lat="45.27947" lon="5.4726">
        <ele>420.4</ele>
      </trkpt>
      <trkpt lat="45.27931" lon="5.47255">
        <ele>416.9</ele>
      </trkpt>
      <trkpt lat="45.2791" lon="5.47198">
        <ele>400.3</ele>
      </trkpt>
      <trkpt lat="45.27929" lon="5.47127">
        <ele>387.4</ele>
      </trkpt>
      <trkpt lat="45.27918" lon="5.47117">
        <ele>385.7</ele>
      </trkpt>
      <trkpt lat="45.27865" lon="5.47096">
        <ele>370.4</ele>
      </trkpt>
      <trkpt lat="45.27736" lon="5.46989">
        <ele>345.9</ele>
      </trkpt>
      <trkpt lat="45.27696" lon="5.46995">
        <ele>341</ele>
      </trkpt>
      <trkpt lat="45.27693" lon="5.46995">
        <ele>339.18359375</ele>
        <time>2015-11-15T18:55:20Z</time>
      </trkpt>
      <trkpt lat="45.27777" lon="5.46842">
        <ele>339.94921875</ele>
        <time>2015-11-15T18:55:27Z</time>
      </trkpt>
      <trkpt lat="45.28078" lon="5.46942">
        <ele>339.28125</ele>
        <time>2015-11-15T18:55:28Z</time>
      </trkpt>
      <trkpt lat="45.28215" lon="5.47047">
        <ele>348.6484375</ele>
        <time>2015-11-15T18:55:30Z</time>
      </trkpt>
      <trkpt lat="45.28262" lon="5.4706">
        <ele>335.6</ele>
      </trkpt>
      <trkpt lat="45.28414" lon="5.47162">
        <ele>318.8</ele>
      </trkpt>
      <trkpt lat="45.28337" lon="5.46993">
        <ele>309.7</ele>
      </trkpt>
      <trkpt lat="45.28267" lon="5.46909">
        <ele>300.9</ele>
      </trkpt>
      <trkpt lat="45.27958" lon="5.46731">
        <ele>287.1</ele>
      </trkpt>
      <trkpt lat="45.27988" lon="5.46636">
        <ele>286.6</ele>
      </trkpt>
      <trkpt lat="45.27919" lon="5.46542">
        <ele>289.4</ele>
      </trkpt>
      <trkpt lat="45.27794" lon="5.4646">
        <ele>290.7</ele>
      </trkpt>
      <trkpt lat="45.27703" lon="5.46446">
        <ele>286.3</ele>
      </trkpt>
      <trkpt lat="45.27646" lon="5.46416">
        <ele>284.6</ele>
      </trkpt>
      <trkpt lat="45.27401" lon="5.46314">
        <ele>287.5</ele>
      </trkpt>
      <trkpt lat="45.27418" lon="5.46205">
        <ele>294.2</ele>
      </trkpt>
      <trkpt lat="45.27408" lon="5.46197">
        <ele>298.2</ele>
      </trkpt>
      <trkpt lat="45.27391" lon="5.46246">
        <ele>298.7</ele>
      </trkpt>
      <trkpt lat="45.27284" lon="5.46239">
        <ele>308</ele>
      </trkpt>
      <trkpt lat="45.27163" lon="5.46066">
        <ele>306.4</ele>
      </trkpt>
      <trkpt lat="45.27156" lon="5.46057">
        <ele>306.44921875</ele>
        <time>2015-11-15T18:55:56Z</time>
      </trkpt>
      <trkpt lat="45.27037" lon="5.46294">
        <ele>307.2578125</ele>
        <time>2015-11-15T18:55:58Z</time>
      </trkpt>
      <trkpt lat="45.26857" lon="5.46646">
        <ele>291.234375</ele>
        <time>2015-11-15T18:56:00Z</time>
      </trkpt>
      <trkpt lat="45.26697" lon="5.46725">
        <ele>283.69140625</ele>
        <time>2015-11-15T18:56:01Z</time>
      </trkpt>
      <trkpt lat="45.26688" lon="5.46833">
        <ele>288.9609375</ele>
        <time>2015-11-15T18:56:05Z</time>
      </trkpt>
      <trkpt lat="45.2672" lon="5.47033">
        <ele>303.88671875</ele>
        <time>2015-11-15T18:56:06Z</time>
      </trkpt>
      <trkpt lat="45.26632" lon="5.47268">
        <ele>306.25390625</ele>
        <time>2015-11-15T18:56:08Z</time>
      </trkpt>
      <trkpt lat="45.26526" lon="5.47363">
        <ele>297.23046875</ele>
        <time>2015-11-15T18:56:09Z</time>
      </trkpt>
      <trkpt lat="45.26383" lon="5.473">
        <ele>288.1796875</ele>
        <time>2015-11-15T18:56:12Z</time>
      </trkpt>
      <trkpt lat="45.26271" lon="5.47215">
        <ele>286.87890625</ele>
        <time>2015-11-15T18:56:14Z</time>
      </trkpt>
      <trkpt lat="45.26091" lon="5.4721">
        <ele>268.15234375</ele>
        <time>2015-11-15T18:56:17Z</time>
      </trkpt>
      <trkpt lat="45.25972" lon="5.47299">
        <ele>242.00390625</ele>
        <time>2015-11-15T18:56:19Z</time>
      </trkpt>
      <trkpt lat="45.25958" lon="5.47437">
        <ele>227.22265625</ele>
        <time>2015-11-15T18:56:21Z</time>
      </trkpt>
      <trkpt lat="45.2585" lon="5.47439">
        <ele>219.515625</ele>
        <time>2015-11-15T18:56:22Z</time>
      </trkpt>
      <trkpt lat="45.25802" lon="5.47661">
        <ele>191.1328125</ele>
        <time>2015-11-15T18:56:24Z</time>
      </trkpt>
      <trkpt lat="45.25711" lon="5.47612">
        <ele>191.3828125</ele>
        <time>2015-11-15T18:56:27Z</time>
      </trkpt>
      <trkpt lat="45.25583" lon="5.47658">
        <ele>186.43359375</ele>
        <time>2015-11-15T18:56:29Z</time>
      </trkpt>
      <trkpt lat="45.25404" lon="5.47562">
        <ele>186.75</ele>
        <time>2015-11-15T18:56:31Z</time>
      </trkpt>
      <trkpt lat="45.2534" lon="5.47476">
        <ele>195.5</ele>
      </trkpt>
      <trkpt lat="45.25236" lon="5.47441">
        <ele>200.4</ele>
      </trkpt>
      <trkpt lat="45.25235" lon="5.47417">
        <ele>203.3</ele>
      </trkpt>
      <trkpt lat="45.25251" lon="5.47406">
        <ele>207.7</ele>
      </trkpt>
      <trkpt lat="45.25295" lon="5.47415">
        <ele>208.4</ele>
      </trkpt>
      <trkpt lat="45.25316" lon="5.47406">
        <ele>209.8</ele>
      </trkpt>
      <trkpt lat="45.25314" lon="5.4738">
        <ele>213</ele>
      </trkpt>
      <trkpt lat="45.25237" lon="5.47312">
        <ele>219.2</ele>
      </trkpt>
      <trkpt lat="45.25196" lon="5.47181">
        <ele>222.6</ele>
      </trkpt>
      <trkpt lat="45.25195" lon="5.47175">
        <ele>221.33203125</ele>
        <time>2015-11-15T18:56:37Z</time>
      </trkpt>
      <trkpt lat="45.2498" lon="5.47171">
        <ele>218.1015625</ele>
        <time>2015-11-15T18:56:39Z</time>
      </trkpt>
      <trkpt lat="45.24911" lon="5.46976">
        <ele>216.17578125</ele>
        <time>2015-11-15T18:56:40Z</time>
      </trkpt>
      <trkpt lat="45.25" lon="5.46761">
        <ele>234.15625</ele>
        <time>2015-11-15T18:56:42Z</time>
      </trkpt>
      <trkpt lat="45.25051" lon="5.46514">
        <ele>272.43359375</ele>
        <time>2015-11-15T18:56:43Z</time>
      </trkpt>
      <trkpt lat="45.24941" lon="5.46396">
        <ele>290.546875</ele>
        <time>2015-11-15T18:56:44Z</time>
      </trkpt>
      <trkpt lat="45.24762" lon="5.4635">
        <ele>310.19921875</ele>
        <time>2015-11-15T18:56:46Z</time>
      </trkpt>
      <trkpt lat="45.24683" lon="5.46465">
        <ele>337.0859375</ele>
        <time>2015-11-15T18:56:48Z</time>
      </trkpt>
      <trkpt lat="45.24574" lon="5.46489">
        <ele>342.671875</ele>
        <time>2015-11-15T18:56:54Z</time>
      </trkpt>
      <trkpt lat="45.24115" lon="5.4654">
        <ele>346.31640625</ele>
        <time>2015-11-15T18:56:57Z</time>
      </trkpt>
      <trkpt lat="45.24014" lon="5.46522">
        <ele>359.9688</ele>
        <time>2015-11-15T18:56:58Z</time>
      </trkpt>
      <trkpt lat="45.23931" lon="5.466">
        <ele>359.9688</ele>
        <time>2015-11-15T18:57:00Z</time>
      </trkpt>
      <trkpt lat="45.23711" lon="5.46657">
        <ele>359.9688</ele>
        <time>2015-11-15T18:57:02Z</time>
      </trkpt>
      <trkpt lat="45.23529" lon="5.46637">
        <ele>385.6640625</ele>
        <time>2015-11-15T18:57:05Z</time>
      </trkpt>
      <trkpt lat="45.235" lon="5.4662">
        <ele>383.1</ele>
      </trkpt>
      <trkpt lat="45.23469" lon="5.46577">
        <ele>383.2</ele>
      </trkpt>
      <trkpt lat="45.23444" lon="5.46504">
        <ele>386.3</ele>
      </trkpt>
      <trkpt lat="45.23456" lon="5.46407">
        <ele>383.2</ele>
      </trkpt>
      <trkpt lat="45.23527" lon="5.46331">
        <ele>366.6</ele>
      </trkpt>
      <trkpt lat="45.23533" lon="5.46301">
        <ele>363.3</ele>
      </trkpt>
      <trkpt lat="45.2352" lon="5.46257">
        <ele>357.7</ele>
      </trkpt>
      <trkpt lat="45.23317" lon="5.46361">
        <ele>338.5</ele>
      </trkpt>
      <trkpt lat="45.23293" lon="5.46421">
        <ele>342</ele>
      </trkpt>
      <trkpt lat="45.23279" lon="5.46418">
        <ele>335.5</ele>
      </trkpt>
      <trkpt lat="45.2328" lon="5.46392">
        <ele>332.8</ele>
      </trkpt>
      <trkpt lat="45.23311" lon="5.46279">
        <ele>329.1</ele>
      </trkpt>
      <trkpt lat="45.23315" lon="5.46273">
        <ele>324.8984375</ele>
        <time>2015-11-15T18:57:19Z</time>
      </trkpt>
      <trkpt lat="45.23389" lon="5.45921">
        <ele>362.80859375</ele>
        <time>2015-11-15T18:57:20Z</time>
      </trkpt>
      <trkpt lat="45.23356" lon="5.45788">
        <ele>370.82421875</ele>
        <time>2015-11-15T18:57:22Z</time>
      </trkpt>
      <trkpt lat="45.23112" lon="5.4531">
        <ele>352.09375</ele>
        <time>2015-11-15T18:57:23Z</time>
      </trkpt>
      <trkpt lat="45.23113" lon="5.44983">
        <ele>336.8671875</ele>
        <time>2015-11-15T18:57:25Z</time>
      </trkpt>
      <trkpt lat="45.23008" lon="5.44848">
        <ele>326.91796875</ele>
        <time>2015-11-15T18:57:26Z</time>
      </trkpt>
      <trkpt lat="45.22997" lon="5.44733">
        <ele>306.2109375</ele>
        <time>2015-11-15T18:57:29Z</time>
      </trkpt>
      <trkpt lat="45.22962" lon="5.44604">
        <ele>304.1171875</ele>
        <time>2015-11-15T18:57:31Z</time>
      </trkpt>
      <trkpt lat="45.22819" lon="5.44478">
        <ele>304.18359375</ele>
        <time>2015-11-15T18:57:32Z</time>
      </trkpt>
      <trkpt lat="45.22734" lon="5.44337">
        <ele>289.36328125</ele>
        <time>2015-11-15T18:57:34Z</time>
      </trkpt>
      <trkpt lat="45.22714" lon="5.44238">
        <ele>277.4</ele>
      </trkpt>
      <trkpt lat="45.22675" lon="5.44164">
        <ele>275.4</ele>
      </trkpt>
      <trkpt lat="45.22637" lon="5.44138">
        <ele>273.4</ele>
      </trkpt>
      <trkpt lat="45.22626" lon="5.44123">
        <ele>267.7</ele>
      </trkpt>
      <trkpt lat="45.22564" lon="5.44175">
        <ele>260.7</ele>
      </trkpt>
      <trkpt lat="45.22559" lon="5.44169">
        <ele>259.7</ele>
      </trkpt>
      <trkpt lat="45.22564" lon="5.4412">
        <ele>256</ele>
      </trkpt>
      <trkpt lat="45.2254" lon="5.44108">
        <ele>252.7</ele>
      </trkpt>
      <trkpt lat="45.22541" lon="5.43917">
        <ele>259</ele>
      </trkpt>
      <trkpt lat="45.22386" lon="5.43896">
        <ele>258.1</ele>
      </trkpt>
      <trkpt lat="45.22403" lon="5.43801">
        <ele>268.6</ele>
      </trkpt>
      <trkpt lat="45.22448" lon="5.43747">
        <ele>282.9</ele>
      </trkpt>
      <trkpt lat="45.225" lon="5.43728">
        <ele>296.7</ele>
      </trkpt>
      <trkpt lat="45.2252" lon="5.43698">
        <ele>306.3</ele>
      </trkpt>
      <trkpt lat="45.22612" lon="5.43657">
        <ele>328.1</ele>
      </trkpt>
      <trkpt lat="45.22616" lon="5.43655">
        <ele>320.18359375</ele>
        <time>2015-11-15T18:57:49Z</time>
      </trkpt>
      <trkpt lat="45.22601" lon="5.43559">
        <ele>346.3671875</ele>
        <time>2015-11-15T18:57:50Z</time>
      </trkpt>
      <trkpt lat="45.22534" lon="5.43289">
        <ele>350.65625</ele>
        <time>2015-11-15T18:57:51Z</time>
      </trkpt>
      <trkpt lat="45.2236" lon="5.42992">
        <ele>357.0234375</ele>
        <time>2015-11-15T18:57:53Z</time>
      </trkpt>
      <trkpt lat="45.2213" lon="5.42682">
        <ele>353.54296875</ele>
        <time>2015-11-15T18:57:55Z</time>
      </trkpt>
      <trkpt lat="45.22133" lon="5.42567">
        <ele>345.2109375</ele>
        <time>2015-11-15T18:57:56Z</time>
      </trkpt>
      <trkpt lat="45.22244" lon="5.42455">
        <ele>350.921875</ele>
        <time>2015-11-15T18:57:58Z</time>
      </trkpt>
      <trkpt lat="45.2226" lon="5.42422">
        <ele>355.5</ele>
      </trkpt>
      <trkpt lat="45.22261" lon="5.424">
        <ele>356.7</ele>
      </trkpt>
      <trkpt lat="45.22274" lon="5.42384">
        <ele>360.3</ele>
      </trkpt>
      <trkpt lat="45.22274" lon="5.42362">
        <ele>361.2</ele>
      </trkpt>
      <trkpt lat="45.22304" lon="5.42348">
        <ele>368.5</ele>
      </trkpt>
      <trkpt lat="45.22309" lon="5.42326">
        <ele>369.6</ele>
      </trkpt>
      <trkpt lat="45.22258" lon="5.42285">
        <ele>358.9</ele>
      </trkpt>
      <trkpt lat="45.22243" lon="5.42208">
        <ele>357.8</ele>
      </trkpt>
      <trkpt lat="45.22225" lon="5.42168">
        <ele>355.5</ele>
      </trkpt>
      <trkpt lat="45.22241" lon="5.42128">
        <ele>361.4</ele>
      </trkpt>
      <trkpt lat="45.22235" lon="5.42116">
        <ele>361.3</ele>
      </trkpt>
      <trkpt lat="45.22212" lon="5.42103">
        <ele>359.4</ele>
      </trkpt>
      <trkpt lat="45.22208" lon="5.4206">
        <ele>364.5</ele>
      </trkpt>
      <trkpt lat="45.22191" lon="5.42014">
        <ele>364.4</ele>
      </trkpt>
      <trkpt lat="45.222" lon="5.42006">
        <ele>366.8</ele>
      </trkpt>
      <trkpt lat="45.22236" lon="5.42041">
        <ele>371.2</ele>
      </trkpt>
      <trkpt lat="45.22256" lon="5.42037">
        <ele>374.2</ele>
      </trkpt>
      <trkpt lat="45.22316" lon="5.4197">
        <ele>382.9</ele>
      </trkpt>
      <trkpt lat="45.22319" lon="5.41965">
        <ele>380.40234375</ele>
        <time>2015-11-15T18:58:09Z</time>
      </trkpt>
      <trkpt lat="45.22364" lon="5.41759">
        <ele>395.60546875</ele>
        <time>2015-11-15T18:58:10Z</time>
      </trkpt>
      <trkpt lat="45.22472" lon="5.41806">
        <ele>407.37890625</ele>
        <time>2015-11-15T18:58:11Z</time>
      </trkpt>
      <trkpt lat="45.22583" lon="5.41897">
        <ele>425.69921875</ele>
        <time>2015-11-15T18:58:13Z</time>
      </trkpt>
      <trkpt lat="45.22619" lon="5.4192">
        <ele>440.7</ele>
      </trkpt>
      <trkpt lat="45.22672" lon="5.41928">
        <ele>455.1</ele>
      </trkpt>
      <trkpt lat="45.22729" lon="5.4194">
        <ele>468.7</ele>
      </trkpt>
      <trkpt lat="45.22692" lon="5.41885">
        <ele>467.2</ele>
      </trkpt>
      <trkpt lat="45.22735" lon="5.41922">
        <ele>472.5</ele>
      </trkpt>
      <trkpt lat="45.22818" lon="5.41895">
        <ele>485.9</ele>
      </trkpt>
      <trkpt lat="45.22893" lon="5.41838">
        <ele>495</ele>
      </trkpt>
      <trkpt lat="45.22897" lon="5.41834">
        <ele>493.18359375</ele>
        <time>2015-11-15T18:58:18Z</time>
      </trkpt>
      <trkpt lat="45.2306" lon="5.4212">
        <ele>515.65234375</ele>
        <time>2015-11-15T18:58:20Z</time>
      </trkpt>
      <trkpt lat="45.23247" lon="5.42373">
        <ele>524.7734375</ele>
        <time>2015-11-15T18:58:21Z</time>
      </trkpt>
      <trkpt lat="45.23455" lon="5.42482">
        <ele>519.95703125</ele>
        <time>2015-11-15T18:58:23Z</time>
      </trkpt>
      <trkpt lat="45.23301" lon="5.42738">
        <ele>528.09375</ele>
        <time>2015-11-15T18:58:24Z</time>
      </trkpt>
      <trkpt lat="45.23111" lon="5.42788">
        <ele>513.90234375</ele>
        <time>2015-11-15T18:58:25Z</time>
      </trkpt>
      <trkpt lat="45.231" lon="5.42901">
        <ele>501.8984375</ele>
        <time>2015-11-15T18:58:27Z</time>
      </trkpt>
      <trkpt lat="45.23181" lon="5.43186">
        <ele>479.7552</ele>
        <time>2015-11-15T18:58:28Z</time>
      </trkpt>
      <trkpt lat="45.23307" lon="5.43293">
        <ele>479.7552</ele>
        <time>2015-11-15T18:58:31Z</time>
      </trkpt>
      <trkpt lat="45.23404" lon="5.4328">
        <ele>475.1796875</ele>
        <time>2015-11-15T18:58:32Z</time>
      </trkpt>
      <trkpt lat="45.23548" lon="5.43423">
        <ele>479.7552</ele>
        <time>2015-11-15T18:58:34Z</time>
      </trkpt>
      <trkpt lat="45.23696" lon="5.43433">
        <ele>492.24609375</ele>
        <time>2015-11-15T18:58:38Z</time>
      </trkpt>
      <trkpt lat="45.23734" lon="5.43542">
        <ele>474.0625</ele>
        <time>2015-11-15T18:58:41Z</time>
      </trkpt>
      <trkpt lat="45.23604" lon="5.43541">
        <ele>460.79296875</ele>
        <time>2015-11-15T18:58:44Z</time>
      </trkpt>
      <trkpt lat="45.23529" lon="5.43584">
        <ele>445.96484375</ele>
        <time>2015-11-15T18:58:46Z</time>
      </trkpt>
      <trkpt lat="45.2348" lon="5.43588">
        <ele>447.3</ele>
      </trkpt>
      <trkpt lat="45.23498" lon="5.43678">
        <ele>427</ele>
      </trkpt>
      <trkpt lat="45.23536" lon="5.43744">
        <ele>415.4</ele>
      </trkpt>
      <trkpt lat="45.23573" lon="5.43749">
        <ele>416.4</ele>
      </trkpt>
      <trkpt lat="45.23577" lon="5.43751">
        <ele>417.46875</ele>
        <time>2015-11-15T18:58:54Z</time>
      </trkpt>
      <trkpt lat="45.23818" lon="5.43782">
        <ele>408.9375</ele>
        <time>2015-11-15T18:58:56Z</time>
      </trkpt>
      <trkpt lat="45.23992" lon="5.43497">
        <ele>445.265625</ele>
        <time>2015-11-15T18:58:58Z</time>
      </trkpt>
      <trkpt lat="45.24052" lon="5.43468">
        <ele>453.7</ele>
      </trkpt>
      <trkpt lat="45.24077" lon="5.43479">
        <ele>458.4</ele>
      </trkpt>
      <trkpt lat="45.24082" lon="5.43549">
        <ele>449.8</ele>
      </trkpt>
      <trkpt lat="45.24095" lon="5.43587">
        <ele>450.4</ele>
      </trkpt>
      <trkpt lat="45.24129" lon="5.43629">
        <ele>457.7</ele>
      </trkpt>
      <trkpt lat="45.24123" lon="5.43662">
        <ele>452.4</ele>
      </trkpt>
      <trkpt lat="45.24091" lon="5.43693">
        <ele>438.3</ele>
      </trkpt>
      <trkpt lat="45.2407" lon="5.43724">
        <ele>432.4</ele>
      </trkpt>
      <trkpt lat="45.24047" lon="5.43846">
        <ele>422.7</ele>
      </trkpt>
      <trkpt lat="45.2406" lon="5.439">
        <ele>411.2</ele>
      </trkpt>
      <trkpt lat="45.24097" lon="5.43933">
        <ele>398.7</ele>
      </trkpt>
      <trkpt lat="45.24219" lon="5.43928">
        <ele>386.4</ele>
      </trkpt>
      <trkpt lat="45.24223" lon="5.43929">
        <ele>381.90625</ele>
        <time>2015-11-15T18:59:04Z</time>
      </trkpt>
      <trkpt lat="45.24304" lon="5.43987">
        <ele>359.81640625</ele>
        <time>2015-11-15T18:59:05Z</time>
      </trkpt>
      <trkpt lat="45.24456" lon="5.43952">
        <ele>342.17578125</ele>
        <time>2015-11-15T18:59:06Z</time>
      </trkpt>
      <trkpt lat="45.2455" lon="5.43831">
        <ele>340.83984375</ele>
        <time>2015-11-15T18:59:08Z</time>
      </trkpt>
      <trkpt lat="45.24986" lon="5.43616">
        <ele>351.76171875</ele>
        <time>2015-11-15T18:59:09Z</time>
      </trkpt>
      <trkpt lat="45.25124" lon="5.43564">
        <ele>359.30859375</ele>
        <time>2015-11-15T18:59:19Z</time>
      </trkpt>
      <trkpt lat="45.2535" lon="5.43804">
        <ele>354.890625</ele>
        <time>2015-11-15T18:59:21Z</time>
      </trkpt>
      <trkpt lat="45.25595" lon="5.43818">
        <ele>359.46875</ele>
        <time>2015-11-15T18:59:22Z</time>
      </trkpt>
      <trkpt lat="45.25895" lon="5.43919">
        <ele>369.80078125</ele>
        <time>2015-11-15T18:59:24Z</time>
      </trkpt>
      <trkpt lat="45.26276" lon="5.4414">
        <ele>399.8976</ele>
        <time>2015-11-15T18:59:26Z</time>
      </trkpt>
      <trkpt lat="45.26487" lon="5.44097">
        <ele>406.6640625</ele>
        <time>2015-11-15T18:59:28Z</time>
      </trkpt>
      <trkpt lat="45.26576" lon="5.44226">
        <ele>390.0390625</ele>
        <time>2015-11-15T18:59:29Z</time>
      </trkpt>
      <trkpt lat="45.26626" lon="5.44113">
        <ele>386.46875</ele>
        <time>2015-11-15T18:59:30Z</time>
      </trkpt>
      <trkpt lat="45.2675" lon="5.44131">
        <ele>370.98046875</ele>
        <time>2015-11-15T18:59:31Z</time>
      </trkpt>
      <trkpt lat="45.26865" lon="5.43956">
        <ele>385.203125</ele>
        <time>2015-11-15T18:59:33Z</time>
      </trkpt>
      <trkpt lat="45.26954" lon="5.44007">
        <ele>410.27734375</ele>
        <time>2015-11-15T18:59:35Z</time>
      </trkpt>
      <trkpt lat="45.26908" lon="5.44187">
        <ele>418.828125</ele>
        <time>2015-11-15T18:59:36Z</time>
      </trkpt>
      <trkpt lat="45.27153" lon="5.43921">
        <ele>459.15625</ele>
        <time>2015-11-15T18:59:38Z</time>
      </trkpt>
      <trkpt lat="45.27245" lon="5.43767">
        <ele>483.69140625</ele>
        <time>2015-11-15T18:59:39Z</time>
      </trkpt>
      <trkpt lat="45.27235" lon="5.44037">
        <ele>517.453125</ele>
        <time>2015-11-15T18:59:40Z</time>
      </trkpt>
      <trkpt lat="45.27323" lon="5.4381">
        <ele>513.23828125</ele>
        <time>2015-11-15T18:59:42Z</time>
      </trkpt>
      <trkpt lat="45.2743" lon="5.4382">
        <ele>538.26953125</ele>
        <time>2015-11-15T18:59:43Z</time>
      </trkpt>
      <trkpt lat="45.27415" lon="5.43898">
        <ele>552</ele>
      </trkpt>
      <trkpt lat="45.27417" lon="5.44">
        <ele>566.9</ele>
      </trkpt>
      <trkpt lat="45.27443" lon="5.44066">
        <ele>575.1</ele>
      </trkpt>
      <trkpt lat="45.27543" lon="5.43969">
        <ele>603.4</ele>
      </trkpt>
      <trkpt lat="45.27671" lon="5.43893">
        <ele>623</ele>
      </trkpt>
      <trkpt lat="45.27711" lon="5.43915">
        <ele>631.3</ele>
      </trkpt>
      <trkpt lat="45.27772" lon="5.43896">
        <ele>637.7</ele>
      </trkpt>
      <trkpt lat="45.27792" lon="5.43911">
        <ele>639.1</ele>
      </trkpt>
      <trkpt lat="45.27867" lon="5.43916">
        <ele>636.6</ele>
      </trkpt>
      <trkpt lat="45.27956" lon="5.43999">
        <ele>619.8</ele>
      </trkpt>
      <trkpt lat="45.28" lon="5.43983">
        <ele>607.4</ele>
      </trkpt>
      <trkpt lat="45.28005" lon="5.43971">
        <ele>604.6</ele>
      </trkpt>
      <trkpt lat="45.28108" lon="5.44036">
        <ele>603.7</ele>
      </trkpt>
      <trkpt lat="45.28147" lon="5.44037">
        <ele>597.1</ele>
      </trkpt>
      <trkpt lat="45.28152" lon="5.44037">
        <ele>607.35546875</ele>
        <time>2015-11-15T19:00:00Z</time>
      </trkpt>
      <trkpt lat="45.28312" lon="5.4422">
        <ele>550.7578125</ele>
        <time>2015-11-15T19:00:01Z</time>
      </trkpt>
      <trkpt lat="45.28446" lon="5.44498">
        <ele>492.5</ele>
      </trkpt>
      <trkpt lat="45.28468" lon="5.44516">
        <ele>486.5</ele>
      </trkpt>
      <trkpt lat="45.28527" lon="5.44537">
        <ele>469.9</ele>
      </trkpt>
      <trkpt lat="45.28533" lon="5.44636">
        <ele>462.7</ele>
      </trkpt>
      <trkpt lat="45.28505" lon="5.4469">
        <ele>459.7</ele>
      </trkpt>
      <trkpt lat="45.2847" lon="5.44715">
        <ele>457.8</ele>
      </trkpt>
      <trkpt lat="45.28473" lon="5.44738">
        <ele>452.5</ele>
      </trkpt>
      <trkpt lat="45.28527" lon="5.4472">
        <ele>448.6</ele>
      </trkpt>
      <trkpt lat="45.28549" lon="5.44701">
        <ele>448.5</ele>
      </trkpt>
      <trkpt lat="45.2857" lon="5.44698">
        <ele>446.6</ele>
      </trkpt>
      <trkpt lat="45.28591" lon="5.44719">
        <ele>444.3</ele>
      </trkpt>
      <trkpt lat="45.28591" lon="5.4475">
        <ele>442.6</ele>
      </trkpt>
      <trkpt lat="45.28621" lon="5.44775">
        <ele>445.4</ele>
      </trkpt>
      <trkpt lat="45.28647" lon="5.44576">
        <ele>474.1</ele>
      </trkpt>
      <trkpt lat="45.28642" lon="5.44431">
        <ele>486.4</ele>
      </trkpt>
      <trkpt lat="45.28648" lon="5.44384">
        <ele>491.1</ele>
      </trkpt>
      <trkpt lat="45.28672" lon="5.44339">
        <ele>503.1</ele>
      </trkpt>
      <trkpt lat="45.28713" lon="5.44674">
        <ele>517.3</ele>
      </trkpt>
      <trkpt lat="45.28726" lon="5.44683">
        <ele>520.5</ele>
      </trkpt>
      <trkpt lat="45.2874" lon="5.44677">
        <ele>521</ele>
      </trkpt>
      <trkpt lat="45.28752" lon="5.44642">
        <ele>527.1</ele>
      </trkpt>
      <trkpt lat="45.28749" lon="5.4463">
        <ele>529.3</ele>
      </trkpt>
      <trkpt lat="45.28754" lon="5.4462">
        <ele>530.2</ele>
      </trkpt>
      <trkpt lat="45.28751" lon="5.44604">
        <ele>532.6</ele>
      </trkpt>
      <trkpt lat="45.2876" lon="5.44604">
        <ele>532.1</ele>
      </trkpt>
      <trkpt lat="45.28767" lon="5.44579">
        <ele>536.7</ele>
      </trkpt>
      <trkpt lat="45.28855" lon="5.44437">
        <ele>559.2</ele>
      </trkpt>
      <trkpt lat="45.28857" lon="5.44433">
        <ele>557.30859375</ele>
        <time>2015-11-15T19:00:17Z</time>
      </trkpt>
      <trkpt lat="45.28917" lon="5.44118">
        <ele>590.4296875</ele>
        <time>2015-11-15T19:00:18Z</time>
      </trkpt>
      <trkpt lat="45.29024" lon="5.4413">
        <ele>604.19921875</ele>
        <time>2015-11-15T19:00:19Z</time>
      </trkpt>
      <trkpt lat="45.29089" lon="5.43931">
        <ele>642.69140625</ele>
        <time>2015-11-15T19:00:20Z</time>
      </trkpt>
      <trkpt lat="45.29174" lon="5.43817">
        <ele>650.7</ele>
      </trkpt>
      <trkpt lat="45.29201" lon="5.4378">
        <ele>655.8</ele>
      </trkpt>
      <trkpt lat="45.29234" lon="5.43777">
        <ele>656.8</ele>
      </trkpt>
      <trkpt lat="45.2927" lon="5.43816">
        <ele>658.5</ele>
      </trkpt>
      <trkpt lat="45.2928" lon="5.43862">
        <ele>661</ele>
      </trkpt>
      <trkpt lat="45.29283" lon="5.43938">
        <ele>664.8</ele>
      </trkpt>
      <trkpt lat="45.29299" lon="5.43999">
        <ele>669.2</ele>
      </trkpt>
      <trkpt lat="45.29321" lon="5.44028">
        <ele>670.1</ele>
      </trkpt>
      <trkpt lat="45.29354" lon="5.44006">
        <ele>672.3</ele>
      </trkpt>
      <trkpt lat="45.29365" lon="5.43972">
        <ele>678.6</ele>
      </trkpt>
      <trkpt lat="45.2936" lon="5.43912">
        <ele>681</ele>
      </trkpt>
      <trkpt lat="45.29375" lon="5.43783">
        <ele>687.3</ele>
      </trkpt>
    </trkseg>
  </trk>
</gpx>